Casca, Brazil
Current Conditions -  °F | °C
As of 9:00 AM on Tuesday 21 Oct 2014 (Local Time) from SBPF Reporting Station
Clear Clear  
Wind Chill: 57°   Ceiling: Unl
Heat Index: 57°   Visibility: 6mi
Dew Point: 46°   Wind: 14mph
Humidity: 67%   Direction: 100°E
Pressure: 30.18"   Gusts: NA
Location:  28.56°S, 51.98°W
Report Text: SBPF 211100Z 10012KT CAVOK 14/08 Q1022
Loading
Personal Weather Stations






























Interactive Weather Map
Tropical Storm Tracking
New forecast layout! Learn more

10-Day Weather Forecast

Advertisements
Track Severe Weather on mobile